DAL1733 KATL-KMCO
Flight info
| Callsign | DAL1733 |
|---|---|
| Flight time | 1h 11m |
| Altitude | 31000 |
| Route | SMLTZ3 WALET ZJAYX GRNCH5 |
| Aircraft | B739/M-SDE2E3FGHIRWXY/LB1 |
Departure
| Time | 2026-04-19 23:34 |
|---|---|
| Airport | Hartsfield Jackson Atlanta International Airport (KATL) |
Arrival
| Time | 2026-04-20 00:46 |
|---|---|
| Airport | Orlando International Airport (KMCO) |
| Time | Latitude | Longitude | Altitude | Speed | Heading |
|---|---|---|---|---|---|
| 2026-04-19 22:52 | 33.64152 | -84.42882 | 1005 ft | 0 kts | 283° |
| 2026-04-19 23:19 | 33.64148 | -84.42856 | 1005 ft | 4 kts | 269° |
| 2026-04-19 23:19 | 33.64153 | -84.42825 | 1005 ft | 4 kts | 239° |
| 2026-04-19 23:20 | 33.64169 | -84.42807 | 1005 ft | 3 kts | 185° |
| 2026-04-19 23:20 | 33.64177 | -84.42806 | 1005 ft | 0 kts | 180° |
| 2026-04-19 23:24 | 33.64175 | -84.42806 | 1005 ft | 1 kts | 180° |
| 2026-04-19 23:25 | 33.64135 | -84.42806 | 1005 ft | 10 kts | 180° |
| 2026-04-19 23:25 | 33.64048 | -84.42807 | 1005 ft | 14 kts | 180° |
| 2026-04-19 23:25 | 33.63955 | -84.42807 | 1005 ft | 9 kts | 180° |
| 2026-04-19 23:25 | 33.63906 | -84.42809 | 1005 ft | 7 kts | 182° |
| 2026-04-19 23:26 | 33.63866 | -84.42809 | 1005 ft | 5 kts | 180° |
| 2026-04-19 23:26 | 33.63855 | -84.42809 | 1005 ft | 1 kts | 180° |
| 2026-04-19 23:26 | 33.63845 | -84.42808 | 1005 ft | 2 kts | 176° |
| 2026-04-19 23:26 | 33.63819 | -84.42807 | 1005 ft | 7 kts | 178° |
| 2026-04-19 23:27 | 33.63740 | -84.42805 | 1005 ft | 13 kts | 179° |
| 2026-04-19 23:27 | 33.63662 | -84.42750 | 1005 ft | 14 kts | 111° |
| 2026-04-19 23:27 | 33.63655 | -84.42591 | 1006 ft | 24 kts | 90° |
| 2026-04-19 23:27 | 33.63655 | -84.42390 | 1006 ft | 24 kts | 90° |
| 2026-04-19 23:28 | 33.63655 | -84.42198 | 1006 ft | 23 kts | 91° |
| 2026-04-19 23:28 | 33.63655 | -84.42012 | 1005 ft | 22 kts | 90° |
| 2026-04-19 23:28 | 33.63655 | -84.41831 | 1005 ft | 21 kts | 90° |
| 2026-04-19 23:28 | 33.63655 | -84.41656 | 1005 ft | 21 kts | 90° |
| 2026-04-19 23:29 | 33.63655 | -84.41500 | 1005 ft | 14 kts | 91° |
| 2026-04-19 23:29 | 33.63654 | -84.41396 | 1005 ft | 11 kts | 91° |
| 2026-04-19 23:29 | 33.63653 | -84.41303 | 1005 ft | 11 kts | 90° |
| 2026-04-19 23:29 | 33.63652 | -84.41207 | 1005 ft | 14 kts | 91° |
| 2026-04-19 23:30 | 33.63650 | -84.41055 | 1005 ft | 17 kts | 90° |
| 2026-04-19 23:30 | 33.63635 | -84.40934 | 1005 ft | 10 kts | 127° |
| 2026-04-19 23:30 | 33.63580 | -84.40909 | 1005 ft | 3 kts | 179° |
| 2026-04-19 23:30 | 33.63578 | -84.40909 | 1005 ft | 0 kts | 180° |
| 2026-04-19 23:31 | 33.63570 | -84.40909 | 1005 ft | 4 kts | 180° |
| 2026-04-19 23:31 | 33.63523 | -84.40909 | 1006 ft | 9 kts | 180° |
| 2026-04-19 23:31 | 33.63473 | -84.40945 | 1006 ft | 9 kts | 250° |
| 2026-04-19 23:31 | 33.63472 | -84.40962 | 1006 ft | 0 kts | 270° |
| 2026-04-19 23:33 | 33.63472 | -84.40965 | 1006 ft | 2 kts | 270° |
| 2026-04-19 23:33 | 33.63472 | -84.41296 | 1005 ft | 81 kts | 270° |
| 2026-04-19 23:34 | 33.63473 | -84.42259 | 1007 ft | 150 kts | 272° |
| 2026-04-19 23:34 | 33.63454 | -84.43702 | 1246 ft | 189 kts | 273° |
| 2026-04-19 23:34 | 33.63461 | -84.45403 | 1819 ft | 217 kts | 272° |
| 2026-04-19 23:34 | 33.63435 | -84.47227 | 2813 ft | 220 kts | 273° |
| 2026-04-19 23:35 | 33.63414 | -84.49094 | 3536 ft | 232 kts | 274° |
| 2026-04-19 23:35 | 33.63398 | -84.51065 | 4031 ft | 237 kts | 274° |
| 2026-04-19 23:35 | 33.63380 | -84.53073 | 4564 ft | 243 kts | 273° |
| 2026-04-19 23:35 | 33.63382 | -84.55121 | 5102 ft | 247 kts | 275° |
| 2026-04-19 23:36 | 33.63384 | -84.57203 | 5622 ft | 250 kts | 275° |
| 2026-04-19 23:36 | 33.63389 | -84.59262 | 6404 ft | 245 kts | 276° |
| 2026-04-19 23:36 | 33.63410 | -84.61304 | 7008 ft | 245 kts | 277° |
| 2026-04-19 23:36 | 33.63427 | -84.63321 | 7579 ft | 246 kts | 275° |
| 2026-04-19 23:37 | 33.63068 | -84.65350 | 8127 ft | 259 kts | 247° |
| 2026-04-19 23:37 | 33.61812 | -84.66953 | 8718 ft | 271 kts | 220° |
| 2026-04-19 23:37 | 33.60187 | -84.68119 | 9323 ft | 273 kts | 215° |
| 2026-04-19 23:37 | 33.58506 | -84.69207 | 9866 ft | 278 kts | 208° |
| 2026-04-19 23:38 | 33.56566 | -84.69580 | 10367 ft | 290 kts | 180° |
| 2026-04-19 23:38 | 33.54555 | -84.69253 | 10885 ft | 293 kts | 174° |
| 2026-04-19 23:38 | 33.52525 | -84.68837 | 11266 ft | 303 kts | 174° |
| 2026-04-19 23:38 | 33.50384 | -84.68401 | 11513 ft | 319 kts | 174° |
| 2026-04-19 23:39 | 33.48171 | -84.67965 | 12183 ft | 322 kts | 175° |
| 2026-04-19 23:39 | 33.45964 | -84.67542 | 13012 ft | 321 kts | 175° |
| 2026-04-19 23:39 | 33.43781 | -84.67128 | 13755 ft | 323 kts | 174° |
| 2026-04-19 23:39 | 33.41641 | -84.66233 | 14367 ft | 336 kts | 150° |
| 2026-04-19 23:40 | 33.39782 | -84.64385 | 14580 ft | 359 kts | 138° |
| 2026-04-19 23:40 | 33.37955 | -84.62233 | 14735 ft | 379 kts | 136° |
| 2026-04-19 23:40 | 33.36052 | -84.59930 | 14881 ft | 398 kts | 136° |
| 2026-04-19 23:40 | 33.34068 | -84.57526 | 15185 ft | 411 kts | 136° |
| 2026-04-19 23:41 | 33.32042 | -84.55085 | 15717 ft | 416 kts | 137° |
| 2026-04-19 23:41 | 33.29988 | -84.52631 | 16322 ft | 419 kts | 137° |
| 2026-04-19 23:41 | 33.27913 | -84.50169 | 16902 ft | 422 kts | 137° |
| 2026-04-19 23:41 | 33.25817 | -84.47694 | 17453 ft | 426 kts | 138° |
| 2026-04-19 23:42 | 33.23694 | -84.45194 | 18000 ft | 430 kts | 138° |
| 2026-04-19 23:42 | 33.21550 | -84.42673 | 18545 ft | 434 kts | 138° |
| 2026-04-19 23:42 | 33.19417 | -84.40168 | 19017 ft | 438 kts | 139° |
| 2026-04-19 23:42 | 33.17237 | -84.37609 | 19508 ft | 441 kts | 139° |
| 2026-04-19 23:43 | 33.15045 | -84.35036 | 20009 ft | 444 kts | 139° |
| 2026-04-19 23:43 | 33.12834 | -84.32444 | 20485 ft | 447 kts | 139° |
| 2026-04-19 23:43 | 33.10607 | -84.29834 | 20954 ft | 451 kts | 140° |
| 2026-04-19 23:43 | 33.08360 | -84.27202 | 21422 ft | 454 kts | 140° |
| 2026-04-19 23:44 | 33.06105 | -84.24562 | 21897 ft | 456 kts | 140° |
| 2026-04-19 23:44 | 33.03828 | -84.21899 | 22374 ft | 460 kts | 140° |
| 2026-04-19 23:44 | 33.01568 | -84.19262 | 22787 ft | 462 kts | 141° |
| 2026-04-19 23:44 | 32.99060 | -84.16929 | 23217 ft | 453 kts | 159° |
| 2026-04-19 23:45 | 32.96169 | -84.15570 | 23700 ft | 445 kts | 169° |
| 2026-04-19 23:45 | 32.93221 | -84.14415 | 24109 ft | 447 kts | 169° |
| 2026-04-19 23:45 | 32.90259 | -84.13247 | 24479 ft | 450 kts | 169° |
| 2026-04-19 23:45 | 32.87283 | -84.12055 | 24836 ft | 453 kts | 169° |
| 2026-04-19 23:46 | 32.84289 | -84.10841 | 25215 ft | 455 kts | 169° |
| 2026-04-19 23:46 | 32.81284 | -84.09611 | 25588 ft | 458 kts | 169° |
| 2026-04-19 23:46 | 32.78271 | -84.08372 | 25972 ft | 460 kts | 169° |
| 2026-04-19 23:46 | 32.75240 | -84.07124 | 26338 ft | 462 kts | 169° |
| 2026-04-19 23:47 | 32.72197 | -84.05872 | 26628 ft | 464 kts | 169° |
| 2026-04-19 23:47 | 32.69176 | -84.04630 | 26947 ft | 467 kts | 169° |
| 2026-04-19 23:47 | 32.66101 | -84.03367 | 27283 ft | 469 kts | 170° |
| 2026-04-19 23:47 | 32.63015 | -84.02101 | 27619 ft | 471 kts | 170° |
| 2026-04-19 23:48 | 32.59909 | -84.00828 | 27964 ft | 473 kts | 170° |
| 2026-04-19 23:48 | 32.56794 | -83.99552 | 28317 ft | 474 kts | 170° |
| 2026-04-19 23:48 | 32.53683 | -83.98277 | 28829 ft | 472 kts | 171° |
| 2026-04-19 23:48 | 32.50584 | -83.97006 | 29373 ft | 470 kts | 171° |
| 2026-04-19 23:49 | 32.47503 | -83.95746 | 29868 ft | 468 kts | 171° |
| 2026-04-19 23:49 | 32.44420 | -83.94488 | 30228 ft | 469 kts | 171° |
| 2026-04-19 23:49 | 32.41333 | -83.93230 | 30595 ft | 469 kts | 171° |
| 2026-04-19 23:49 | 32.38259 | -83.91975 | 31037 ft | 466 kts | 171° |
| 2026-04-19 23:50 | 32.35254 | -83.90382 | 31165 ft | 486 kts | 156° |
| 2026-04-19 23:50 | 32.32534 | -83.88059 | 31224 ft | 489 kts | 152° |
| 2026-04-19 23:50 | 32.27163 | -83.83113 | 31205 ft | 489 kts | 151° |
| 2026-04-19 23:51 | 32.21788 | -83.78206 | 31201 ft | 487 kts | 152° |
| 2026-04-19 23:51 | 32.16386 | -83.73394 | 31179 ft | 486 kts | 152° |
| 2026-04-19 23:52 | 32.10964 | -83.68619 | 31206 ft | 487 kts | 152° |
| 2026-04-19 23:52 | 32.05555 | -83.63865 | 31211 ft | 489 kts | 152° |
| 2026-04-19 23:53 | 32.00088 | -83.59060 | 31208 ft | 491 kts | 152° |
| 2026-04-19 23:53 | 31.94597 | -83.54238 | 31202 ft | 493 kts | 152° |
| 2026-04-19 23:54 | 31.89110 | -83.49421 | 31155 ft | 489 kts | 153° |
| 2026-04-19 23:54 | 31.83678 | -83.44660 | 31168 ft | 487 kts | 153° |
| 2026-04-19 23:55 | 31.78278 | -83.39943 | 31184 ft | 487 kts | 153° |
| 2026-04-19 23:55 | 31.72839 | -83.35196 | 31182 ft | 487 kts | 153° |
| 2026-04-19 23:56 | 31.67392 | -83.30446 | 31179 ft | 488 kts | 153° |
| 2026-04-19 23:56 | 31.61877 | -83.25876 | 31099 ft | 477 kts | 161° |
| 2026-04-19 23:57 | 31.56007 | -83.22550 | 31148 ft | 470 kts | 166° |
| 2026-04-19 23:57 | 31.50016 | -83.19402 | 31162 ft | 473 kts | 165° |
| 2026-04-19 23:58 | 31.44017 | -83.16144 | 31164 ft | 477 kts | 165° |
| 2026-04-19 23:58 | 31.38002 | -83.12798 | 31156 ft | 480 kts | 163° |
| 2026-04-19 23:59 | 31.32004 | -83.09441 | 31126 ft | 481 kts | 163° |
| 2026-04-19 23:59 | 31.25956 | -83.06065 | 31142 ft | 482 kts | 163° |
| 2026-04-20 00:00 | 31.19906 | -83.02700 | 31150 ft | 481 kts | 163° |
| 2026-04-20 00:00 | 31.13860 | -82.99343 | 31146 ft | 481 kts | 163° |
| 2026-04-20 00:01 | 31.07855 | -82.96019 | 31147 ft | 480 kts | 164° |
| 2026-04-20 00:02 | 30.98816 | -82.91016 | 31145 ft | 479 kts | 164° |
| 2026-04-20 00:02 | 30.92799 | -82.87687 | 31158 ft | 479 kts | 165° |
| 2026-04-20 00:03 | 30.86920 | -82.83867 | 31175 ft | 495 kts | 152° |
| 2026-04-20 00:03 | 30.81510 | -82.78948 | 31181 ft | 498 kts | 150° |
| 2026-04-20 00:04 | 30.76087 | -82.73923 | 31179 ft | 498 kts | 150° |
| 2026-04-20 00:04 | 30.70637 | -82.68955 | 31189 ft | 497 kts | 150° |
| 2026-04-20 00:05 | 30.65168 | -82.64028 | 31195 ft | 497 kts | 150° |
| 2026-04-20 00:05 | 30.59694 | -82.59113 | 31202 ft | 498 kts | 151° |
| 2026-04-20 00:06 | 30.54249 | -82.54227 | 31210 ft | 498 kts | 151° |
| 2026-04-20 00:06 | 30.48773 | -82.49317 | 31219 ft | 498 kts | 151° |
| 2026-04-20 00:07 | 30.43295 | -82.44411 | 31213 ft | 497 kts | 151° |
| 2026-04-20 00:07 | 30.37818 | -82.39514 | 31210 ft | 497 kts | 150° |
| 2026-04-20 00:08 | 30.32387 | -82.34649 | 31221 ft | 497 kts | 150° |
| 2026-04-20 00:08 | 30.26918 | -82.29770 | 31190 ft | 496 kts | 150° |
| 2026-04-20 00:09 | 30.21323 | -82.25218 | 31184 ft | 483 kts | 162° |
| 2026-04-20 00:09 | 30.18296 | -82.23657 | 31186 ft | 472 kts | 170° |
| 2026-04-20 00:09 | 30.15180 | -82.22591 | 31094 ft | 462 kts | 179° |
| 2026-04-20 00:09 | 30.12020 | -82.21970 | 30901 ft | 460 kts | 180° |
| 2026-04-20 00:10 | 30.08887 | -82.21398 | 30651 ft | 452 kts | 181° |
| 2026-04-20 00:10 | 30.05851 | -82.20834 | 30413 ft | 446 kts | 180° |
| 2026-04-20 00:10 | 30.02804 | -82.20253 | 30150 ft | 442 kts | 180° |
| 2026-04-20 00:10 | 29.99772 | -82.19664 | 29873 ft | 441 kts | 180° |
| 2026-04-20 00:11 | 29.96750 | -82.19069 | 29594 ft | 440 kts | 180° |
| 2026-04-20 00:11 | 29.93739 | -82.18473 | 29306 ft | 438 kts | 180° |
| 2026-04-20 00:11 | 29.90740 | -82.17880 | 29155 ft | 437 kts | 180° |
| 2026-04-20 00:12 | 29.84744 | -82.16686 | 29108 ft | 437 kts | 179° |
| 2026-04-20 00:12 | 29.81735 | -82.16087 | 28880 ft | 440 kts | 179° |
| 2026-04-20 00:12 | 29.78760 | -82.15494 | 28626 ft | 438 kts | 179° |
| 2026-04-20 00:12 | 29.75771 | -82.14894 | 28364 ft | 434 kts | 179° |
| 2026-04-20 00:13 | 29.72812 | -82.14301 | 28102 ft | 430 kts | 179° |
| 2026-04-20 00:13 | 29.69872 | -82.13716 | 27840 ft | 428 kts | 179° |
| 2026-04-20 00:13 | 29.66944 | -82.13134 | 27591 ft | 426 kts | 179° |
| 2026-04-20 00:13 | 29.64029 | -82.12556 | 27337 ft | 425 kts | 179° |
| 2026-04-20 00:14 | 29.61114 | -82.11979 | 26995 ft | 426 kts | 179° |
| 2026-04-20 00:14 | 29.58201 | -82.11402 | 26741 ft | 423 kts | 179° |
| 2026-04-20 00:14 | 29.55309 | -82.10828 | 26486 ft | 420 kts | 179° |
| 2026-04-20 00:14 | 29.52474 | -82.10265 | 26230 ft | 419 kts | 179° |
| 2026-04-20 00:15 | 29.49602 | -82.09697 | 25986 ft | 418 kts | 179° |
| 2026-04-20 00:15 | 29.46743 | -82.09131 | 25634 ft | 416 kts | 179° |
| 2026-04-20 00:15 | 29.43909 | -82.08569 | 25222 ft | 411 kts | 179° |
| 2026-04-20 00:15 | 29.41093 | -82.08012 | 24743 ft | 409 kts | 178° |
| 2026-04-20 00:16 | 29.38295 | -82.07461 | 24269 ft | 408 kts | 178° |
| 2026-04-20 00:16 | 29.35505 | -82.06911 | 23752 ft | 407 kts | 178° |
| 2026-04-20 00:16 | 29.32719 | -82.06362 | 23184 ft | 406 kts | 178° |
| 2026-04-20 00:16 | 29.29998 | -82.05622 | 22617 ft | 414 kts | 164° |
| 2026-04-20 00:17 | 29.27439 | -82.04081 | 22240 ft | 415 kts | 157° |
| 2026-04-20 00:17 | 29.24939 | -82.02435 | 21709 ft | 414 kts | 157° |
| 2026-04-20 00:17 | 29.22449 | -82.00807 | 21221 ft | 411 kts | 157° |
| 2026-04-20 00:17 | 29.19968 | -81.99210 | 20740 ft | 408 kts | 158° |
| 2026-04-20 00:18 | 29.17489 | -81.97638 | 20262 ft | 406 kts | 158° |
| 2026-04-20 00:18 | 29.15021 | -81.96084 | 19780 ft | 404 kts | 158° |
| 2026-04-20 00:18 | 29.12557 | -81.94539 | 19278 ft | 403 kts | 158° |
| 2026-04-20 00:18 | 29.10101 | -81.92998 | 18790 ft | 402 kts | 158° |
| 2026-04-20 00:19 | 29.07697 | -81.91465 | 18298 ft | 402 kts | 155° |
| 2026-04-20 00:19 | 29.05425 | -81.89558 | 17759 ft | 408 kts | 143° |
| 2026-04-20 00:19 | 29.03379 | -81.87314 | 17238 ft | 408 kts | 140° |
| 2026-04-20 00:19 | 29.01349 | -81.85058 | 16724 ft | 405 kts | 141° |
| 2026-04-20 00:20 | 28.99320 | -81.82848 | 16237 ft | 402 kts | 141° |
| 2026-04-20 00:20 | 28.97339 | -81.80611 | 15789 ft | 400 kts | 135° |
| 2026-04-20 00:20 | 28.95604 | -81.78143 | 15422 ft | 396 kts | 130° |
| 2026-04-20 00:20 | 28.93988 | -81.75617 | 15039 ft | 392 kts | 129° |
| 2026-04-20 00:21 | 28.92934 | -81.73960 | 14787 ft | 388 kts | 129° |
| 2026-04-20 00:21 | 28.90813 | -81.70712 | 14302 ft | 382 kts | 130° |
| 2026-04-20 00:21 | 28.89209 | -81.68323 | 13939 ft | 377 kts | 130° |
| 2026-04-20 00:21 | 28.87616 | -81.65968 | 13523 ft | 373 kts | 130° |
| 2026-04-20 00:22 | 28.86038 | -81.63639 | 13138 ft | 368 kts | 130° |
| 2026-04-20 00:22 | 28.84484 | -81.61344 | 12774 ft | 364 kts | 130° |
| 2026-04-20 00:22 | 28.82950 | -81.59075 | 12418 ft | 359 kts | 130° |
| 2026-04-20 00:22 | 28.81945 | -81.57591 | 12194 ft | 356 kts | 130° |
| 2026-04-20 00:23 | 28.80439 | -81.55375 | 11844 ft | 351 kts | 131° |
| 2026-04-20 00:23 | 28.77989 | -81.53126 | 11396 ft | 337 kts | 155° |
| 2026-04-20 00:23 | 28.75919 | -81.51917 | 11064 ft | 333 kts | 156° |
| 2026-04-20 00:23 | 28.73867 | -81.50722 | 10756 ft | 329 kts | 155° |
| 2026-04-20 00:24 | 28.72526 | -81.49935 | 10550 ft | 326 kts | 155° |
| 2026-04-20 00:24 | 28.70523 | -81.48750 | 10234 ft | 323 kts | 155° |
| 2026-04-20 00:24 | 28.68546 | -81.47573 | 9919 ft | 319 kts | 155° |
| 2026-04-20 00:24 | 28.66627 | -81.46424 | 9910 ft | 304 kts | 155° |
| 2026-04-20 00:25 | 28.64791 | -81.45324 | 9882 ft | 291 kts | 155° |
| 2026-04-20 00:25 | 28.62448 | -81.43922 | 9583 ft | 285 kts | 155° |
| 2026-04-20 00:25 | 28.60687 | -81.42913 | 9296 ft | 281 kts | 162° |
| 2026-04-20 00:25 | 28.59426 | -81.42577 | 9181 ft | 272 kts | 176° |
| 2026-04-20 00:26 | 28.57568 | -81.42400 | 9054 ft | 263 kts | 178° |
| 2026-04-20 00:26 | 28.55797 | -81.42335 | 8925 ft | 254 kts | 182° |
| 2026-04-20 00:26 | 28.54088 | -81.42347 | 8904 ft | 237 kts | 183° |
| 2026-04-20 00:26 | 28.52486 | -81.42365 | 8800 ft | 224 kts | 183° |
| 2026-04-20 00:27 | 28.50919 | -81.42382 | 8289 ft | 232 kts | 182° |
| 2026-04-20 00:27 | 28.49213 | -81.42398 | 7579 ft | 253 kts | 182° |
| 2026-04-20 00:27 | 28.47455 | -81.42407 | 7292 ft | 252 kts | 181° |
| 2026-04-20 00:27 | 28.45704 | -81.42412 | 7033 ft | 252 kts | 181° |
| 2026-04-20 00:28 | 28.43958 | -81.42415 | 6792 ft | 250 kts | 180° |
| 2026-04-20 00:28 | 28.42213 | -81.42416 | 6481 ft | 251 kts | 180° |
| 2026-04-20 00:28 | 28.40490 | -81.42416 | 6184 ft | 251 kts | 180° |
| 2026-04-20 00:28 | 28.38756 | -81.42418 | 5996 ft | 245 kts | 180° |
| 2026-04-20 00:29 | 28.37071 | -81.42419 | 5791 ft | 241 kts | 180° |
| 2026-04-20 00:29 | 28.35399 | -81.42420 | 5568 ft | 237 kts | 180° |
| 2026-04-20 00:29 | 28.33793 | -81.42255 | 5423 ft | 230 kts | 158° |
| 2026-04-20 00:29 | 28.32487 | -81.41344 | 5391 ft | 213 kts | 146° |
| 2026-04-20 00:30 | 28.31284 | -81.40408 | 5132 ft | 208 kts | 147° |
| 2026-04-20 00:30 | 28.30098 | -81.39494 | 4885 ft | 202 kts | 147° |
| 2026-04-20 00:30 | 28.28996 | -81.38644 | 4747 ft | 188 kts | 147° |
| 2026-04-20 00:30 | 28.27917 | -81.37814 | 4409 ft | 186 kts | 147° |
| 2026-04-20 00:31 | 28.26868 | -81.37007 | 4315 ft | 181 kts | 147° |
| 2026-04-20 00:31 | 28.25805 | -81.36174 | 4213 ft | 190 kts | 141° |
| 2026-04-20 00:31 | 28.25113 | -81.34918 | 4046 ft | 190 kts | 97° |
| 2026-04-20 00:31 | 28.25341 | -81.33457 | 3675 ft | 198 kts | 55° |
| 2026-04-20 00:32 | 28.26367 | -81.32564 | 3349 ft | 188 kts | 13° |
| 2026-04-20 00:32 | 28.27636 | -81.32510 | 2920 ft | 182 kts | 358° |
| 2026-04-20 00:32 | 28.28862 | -81.32523 | 2580 ft | 170 kts | 357° |
| 2026-04-20 00:32 | 28.29969 | -81.32533 | 2356 ft | 153 kts | 358° |
| 2026-04-20 00:33 | 28.31022 | -81.32547 | 2162 ft | 153 kts | 356° |
| 2026-04-20 00:33 | 28.32069 | -81.32562 | 1962 ft | 150 kts | 356° |
| 2026-04-20 00:33 | 28.33095 | -81.32571 | 1775 ft | 146 kts | 357° |
| 2026-04-20 00:33 | 28.34123 | -81.32579 | 1583 ft | 148 kts | 356° |
| 2026-04-20 00:34 | 28.35138 | -81.32588 | 1383 ft | 143 kts | 356° |
| 2026-04-20 00:34 | 28.36136 | -81.32598 | 1193 ft | 144 kts | 355° |
| 2026-04-20 00:34 | 28.37118 | -81.32608 | 1000 ft | 140 kts | 356° |
| 2026-04-20 00:34 | 28.38098 | -81.32616 | 801 ft | 145 kts | 0° |
| 2026-04-20 00:35 | 28.39114 | -81.32624 | 645 ft | 145 kts | 355° |
| 2026-04-20 00:35 | 28.40181 | -81.32648 | 465 ft | 165 kts | 355° |
| 2026-04-20 00:35 | 28.41345 | -81.32657 | 228 ft | 166 kts | 356° |
| 2026-04-20 00:35 | 28.42559 | -81.32669 | 760 ft | 182 kts | 357° |
| 2026-04-20 00:36 | 28.43866 | -81.32642 | 1407 ft | 194 kts | 359° |
| 2026-04-20 00:36 | 28.45276 | -81.32644 | 1797 ft | 214 kts | 355° |
| 2026-04-20 00:36 | 28.46801 | -81.33005 | 2241 ft | 236 kts | 336° |
| 2026-04-20 00:36 | 28.48081 | -81.34132 | 2936 ft | 240 kts | 306° |
| 2026-04-20 00:37 | 28.48603 | -81.35852 | 2939 ft | 231 kts | 277° |
| 2026-04-20 00:37 | 28.48848 | -81.37635 | 2971 ft | 226 kts | 284° |
| 2026-04-20 00:37 | 28.49226 | -81.39356 | 2969 ft | 225 kts | 287° |
| 2026-04-20 00:37 | 28.49670 | -81.41070 | 2976 ft | 227 kts | 289° |
| 2026-04-20 00:38 | 28.50114 | -81.42796 | 2978 ft | 231 kts | 281° |
| 2026-04-20 00:38 | 28.49862 | -81.44601 | 2989 ft | 239 kts | 243° |
| 2026-04-20 00:38 | 28.48707 | -81.45957 | 2982 ft | 244 kts | 212° |
| 2026-04-20 00:38 | 28.47078 | -81.46520 | 2982 ft | 250 kts | 184° |
| 2026-04-20 00:39 | 28.45386 | -81.46202 | 3003 ft | 253 kts | 160° |
| 2026-04-20 00:39 | 28.43781 | -81.45360 | 3005 ft | 255 kts | 153° |
| 2026-04-20 00:39 | 28.42223 | -81.44441 | 3001 ft | 249 kts | 153° |
| 2026-04-20 00:39 | 28.40743 | -81.43573 | 2983 ft | 229 kts | 153° |
| 2026-04-20 00:40 | 28.39389 | -81.42794 | 2973 ft | 211 kts | 153° |
| 2026-04-20 00:40 | 28.38088 | -81.42054 | 2998 ft | 211 kts | 153° |
| 2026-04-20 00:40 | 28.36767 | -81.41306 | 2998 ft | 213 kts | 154° |
| 2026-04-20 00:40 | 28.35439 | -81.40558 | 2988 ft | 215 kts | 154° |
| 2026-04-20 00:41 | 28.34093 | -81.39802 | 2988 ft | 216 kts | 153° |
| 2026-04-20 00:41 | 28.32772 | -81.39061 | 2989 ft | 214 kts | 154° |
| 2026-04-20 00:41 | 28.31435 | -81.38312 | 2987 ft | 214 kts | 154° |
| 2026-04-20 00:41 | 28.30144 | -81.37448 | 2879 ft | 219 kts | 143° |
| 2026-04-20 00:42 | 28.29110 | -81.36165 | 2773 ft | 221 kts | 118° |
| 2026-04-20 00:42 | 28.28719 | -81.34536 | 2859 ft | 212 kts | 89° |
| 2026-04-20 00:42 | 28.29000 | -81.33003 | 2744 ft | 189 kts | 61° |
| 2026-04-20 00:42 | 28.29903 | -81.32117 | 2440 ft | 166 kts | 7° |
| 2026-04-20 00:43 | 28.30991 | -81.32320 | 2130 ft | 156 kts | 341° |
| 2026-04-20 00:43 | 28.32040 | -81.32583 | 1995 ft | 157 kts | 352° |
| 2026-04-20 00:43 | 28.33116 | -81.32601 | 1720 ft | 155 kts | 358° |
| 2026-04-20 00:43 | 28.34197 | -81.32570 | 1474 ft | 154 kts | 356° |
| 2026-04-20 00:44 | 28.35256 | -81.32589 | 1285 ft | 153 kts | 355° |
| 2026-04-20 00:44 | 28.36347 | -81.32620 | 1117 ft | 155 kts | 356° |
| 2026-04-20 00:44 | 28.37403 | -81.32622 | 909 ft | 151 kts | 356° |
| 2026-04-20 00:44 | 28.38447 | -81.32637 | 697 ft | 153 kts | 357° |
| 2026-04-20 00:45 | 28.39508 | -81.32642 | 530 ft | 152 kts | 355° |
| 2026-04-20 00:45 | 28.40608 | -81.32651 | 333 ft | 162 kts | 358° |
| 2026-04-20 00:45 | 28.41715 | -81.32664 | 121 ft | 159 kts | 355° |
| 2026-04-20 00:45 | 28.42713 | -81.32672 | 99 ft | 128 kts | 353° |
| 2026-04-20 00:46 | 28.43443 | -81.32683 | 99 ft | 51 kts | 0° |
| 2026-04-20 00:46 | 28.43661 | -81.32649 | 98 ft | 21 kts | 26° |
| 2026-04-20 00:46 | 28.43740 | -81.32558 | 100 ft | 6 kts | 58° |
| 2026-04-20 00:46 | 28.43758 | -81.32517 | 98 ft | 6 kts | 62° |
| 2026-04-20 00:47 | 28.43777 | -81.32477 | 98 ft | 6 kts | 60° |
| 2026-04-20 00:47 | 28.43797 | -81.32439 | 97 ft | 6 kts | 60° |
| 2026-04-20 00:47 | 28.43818 | -81.32400 | 98 ft | 6 kts | 58° |
| 2026-04-20 00:47 | 28.43851 | -81.32341 | 98 ft | 15 kts | 57° |
| 2026-04-20 00:48 | 28.43929 | -81.32201 | 99 ft | 23 kts | 58° |
| 2026-04-20 00:48 | 28.43980 | -81.32089 | 100 ft | 12 kts | 75° |
| 2026-04-20 00:48 | 28.43983 | -81.31994 | 101 ft | 13 kts | 102° |
| 2026-04-20 00:48 | 28.43938 | -81.31890 | 100 ft | 17 kts | 115° |
| 2026-04-20 00:49 | 28.43921 | -81.31755 | 102 ft | 18 kts | 88° |
| 2026-04-20 00:49 | 28.43923 | -81.31617 | 106 ft | 18 kts | 89° |
| 2026-04-20 00:49 | 28.43926 | -81.31454 | 104 ft | 23 kts | 88° |
| 2026-04-20 00:49 | 28.43934 | -81.31269 | 106 ft | 24 kts | 89° |
| 2026-04-20 00:50 | 28.43941 | -81.31073 | 107 ft | 26 kts | 87° |
| 2026-04-20 00:50 | 28.43942 | -81.30857 | 105 ft | 28 kts | 92° |
| 2026-04-20 00:50 | 28.43927 | -81.30634 | 105 ft | 29 kts | 94° |
| 2026-04-20 00:50 | 28.43913 | -81.30414 | 103 ft | 28 kts | 94° |
| 2026-04-20 00:51 | 28.43902 | -81.30198 | 100 ft | 26 kts | 92° |
| 2026-04-20 00:51 | 28.43894 | -81.30036 | 98 ft | 15 kts | 97° |
| 2026-04-20 00:51 | 28.43867 | -81.29924 | 97 ft | 15 kts | 117° |
| 2026-04-20 00:51 | 28.43797 | -81.29845 | 94 ft | 14 kts | 146° |
| 2026-04-20 00:52 | 28.43706 | -81.29810 | 94 ft | 14 kts | 176° |
| 2026-04-20 00:52 | 28.43613 | -81.29807 | 96 ft | 13 kts | 178° |
| 2026-04-20 00:52 | 28.43523 | -81.29806 | 94 ft | 13 kts | 180° |
| 2026-04-20 00:52 | 28.43436 | -81.29805 | 94 ft | 12 kts | 180° |
| 2026-04-20 00:53 | 28.43350 | -81.29805 | 94 ft | 12 kts | 180° |
| 2026-04-20 00:53 | 28.43267 | -81.29804 | 96 ft | 12 kts | 179° |
| 2026-04-20 00:53 | 28.43186 | -81.29804 | 96 ft | 11 kts | 180° |
| 2026-04-20 00:53 | 28.43107 | -81.29803 | 95 ft | 11 kts | 180° |
| 2026-04-20 00:54 | 28.43031 | -81.29804 | 95 ft | 11 kts | 180° |
| 2026-04-20 00:54 | 28.42950 | -81.29806 | 96 ft | 11 kts | 189° |
| 2026-04-20 00:54 | 28.42903 | -81.29858 | 94 ft | 9 kts | 240° |
| 2026-04-20 00:54 | 28.42849 | -81.29887 | 93 ft | 8 kts | 191° |
| 2026-04-20 00:55 | 28.42820 | -81.29905 | 96 ft | 0 kts | 240° |
| 2026-04-20 00:55 | 28.42820 | -81.29908 | 96 ft | 2 kts | 257° |
| 2026-04-20 00:55 | 28.42821 | -81.29919 | 93 ft | 5 kts | 277° |
| 2026-04-20 00:55 | 28.42828 | -81.29952 | 93 ft | 4 kts | 284° |
| 2026-04-20 00:56 | 28.42835 | -81.29979 | 97 ft | 2 kts | 285° |
| 2026-04-20 00:56 | 28.42836 | -81.29985 | 96 ft | 0 kts | 285° |
| 2026-04-20 00:56 | 28.42837 | -81.29986 | 96 ft | 0 kts | 285° |